Time;durP1;ratioP1;P1;durP2;ratioP2;P2;SDS_P1;SDS_P2;PMS_P1;PMS_P2;Temp;Humidity;BMP_temperature;BMP_pressure;BME280_temperature;BME280_humidity;BME280_pressure;Samples;Min_cycle;Max_cycle;Signal;HPM_P1;HPM_P2
2023/01/21 00:00:58;;;;;;;55.63;29.17;;;2.40;96.50;;;;;;5022358;28;20040;-72
2023/01/21 00:03:24;;;;;;;62.45;32.78;;;2.50;96.90;;;;;;5044079;28;20091;-74
2023/01/21 00:05:49;;;;;;;50.88;26.90;;;2.50;97.60;;;;;;5045730;28;20430;-74
2023/01/21 00:08:15;;;;;;;55.85;29.50;;;2.40;97.30;;;;;;5043270;28;20027;-74
2023/01/21 00:10:41;;;;;;;43.80;22.40;;;2.40;97.90;;;;;;5040011;28;20732;-73
2023/01/21 00:13:06;;;;;;;63.03;33.70;;;2.50;98.60;;;;;;5051862;28;20111;-73
2023/01/21 00:15:34;;;;;;;44.53;24.90;;;2.50;98.60;;;;;;5057593;28;20099;-74
2023/01/21 00:17:59;;;;;;;55.25;29.10;;;2.50;99.20;;;;;;5028778;28;20554;-74
2023/01/21 00:20:25;;;;;;;46.83;24.27;;;2.50;98.90;;;;;;5045225;28;20042;-75
2023/01/21 00:22:52;;;;;;;53.55;26.75;;;2.50;99.30;;;;;;5047325;28;20029;-74
2023/01/21 00:25:19;;;;;;;54.97;30.02;;;2.50;99.00;;;;;;5039445;28;20017;-73
2023/01/21 00:27:45;;;;;;;40.25;21.13;;;2.50;99.00;;;;;;5029315;28;20026;-74
2023/01/21 00:30:12;;;;;;;46.42;26.15;;;2.50;98.90;;;;;;5043356;28;20048;-74
2023/01/21 00:32:37;;;;;;;49.58;27.27;;;2.50;98.50;;;;;;5041742;28;20033;-74
2023/01/21 00:35:04;;;;;;;49.72;24.88;;;2.50;98.60;;;;;;5056903;28;20040;-75
2023/01/21 00:37:30;;;;;;;51.80;27.70;;;2.60;99.30;;;;;;5029301;28;20025;-73
2023/01/21 00:39:56;;;;;;;30.45;16.42;;;2.50;98.90;;;;;;5047390;28;20329;-73
2023/01/21 00:42:21;;;;;;;51.75;27.88;;;2.50;98.90;;;;;;5039986;28;20034;-74
2023/01/21 00:44:48;;;;;;;53.88;26.88;;;2.50;99.00;;;;;;5047194;28;20020;-74
2023/01/21 00:47:14;;;;;;;48.22;26.38;;;2.40;98.50;;;;;;5050551;28;20036;-74
2023/01/21 00:49:39;;;;;;;48.20;26.48;;;2.40;98.60;;;;;;5046328;28;20009;-74
2023/01/21 00:52:05;;;;;;;54.95;28.38;;;2.40;98.50;;;;;;5034530;28;20391;-74
2023/01/21 00:54:31;;;;;;;54.55;27.20;;;2.40;98.60;;;;;;5024774;28;20014;-74
2023/01/21 00:56:57;;;;;;;47.55;26.13;;;2.40;98.50;;;;;;5052234;28;20494;-74
2023/01/21 00:59:23;;;;;;;52.33;26.50;;;2.40;98.60;;;;;;5041294;28;20075;-73
2023/01/21 01:01:49;;;;;;;51.85;27.50;;;2.50;99.10;;;;;;5052756;28;20413;-74
2023/01/21 01:04:14;;;;;;;62.15;32.97;;;2.40;98.80;;;;;;5021069;28;20120;-73
2023/01/21 01:06:40;;;;;;;48.75;28.38;;;2.30;98.40;;;;;;5024126;28;20052;-73
2023/01/21 01:09:06;;;;;;;50.35;25.83;;;2.20;98.00;;;;;;5037398;28;20036;-73
2023/01/21 01:11:32;;;;;;;52.38;28.40;;;2.20;97.90;;;;;;5053337;28;20271;-73
2023/01/21 01:13:58;;;;;;;38.92;20.20;;;2.20;97.60;;;;;;5036676;28;20538;-73
2023/01/21 01:16:24;;;;;;;29.60;15.10;;;2.20;98.30;;;;;;5046647;28;20117;-73
2023/01/21 01:18:51;;;;;;;35.17;17.95;;;2.20;98.80;;;;;;5061852;28;20013;-74
2023/01/21 01:21:19;;;;;;;44.45;23.60;;;2.20;99.50;;;;;;5049369;28;20123;-74
2023/01/21 01:23:45;;;;;;;34.20;16.83;;;2.20;99.30;;;;;;5039711;28;20104;-74
2023/01/21 01:26:14;;;;;;;58.08;29.70;;;2.20;99.70;;;;;;5048636;28;20028;-73
2023/01/21 01:28:40;;;;;;;55.78;29.15;;;2.10;99.50;;;;;;5044613;28;20033;-74
2023/01/21 01:31:11;;;;;;;39.60;19.55;;;2.20;99.50;;;;;;5047916;28;20513;-73
2023/01/21 01:33:37;;;;;;;56.88;29.17;;;2.20;99.80;;;;;;5022110;28;20029;-75
2023/01/21 01:36:05;;;;;;;41.40;22.38;;;2.20;99.60;;;;;;5044143;28;20398;-74
2023/01/21 01:38:31;;;;;;;54.78;30.65;;;2.20;99.40;;;;;;5044356;28;20029;-73
2023/01/21 01:40:57;;;;;;;31.27;15.20;;;2.10;99.00;;;;;;5037054;28;20061;-74
2023/01/21 01:43:26;;;;;;;54.28;27.92;;;2.10;99.30;;;;;;5048070;28;20060;-74
2023/01/21 01:45:52;;;;;;;39.53;17.98;;;2.10;99.50;;;;;;5043219;28;20017;-74
2023/01/21 01:48:25;;;;;;;52.08;27.90;;;2.10;99.80;;;;;;5042724;28;20111;-73
2023/01/21 01:50:50;;;;;;;59.40;30.88;;;2.00;99.30;;;;;;5031896;28;20029;-74
2023/01/21 01:53:18;;;;;;;47.97;27.02;;;2.10;99.70;;;;;;5053305;28;20040;-73
2023/01/21 01:55:45;;;;;;;53.92;27.80;;;2.10;99.70;;;;;;5030062;28;20028;-75
2023/01/21 01:58:13;;;;;;;52.05;26.95;;;2.00;98.80;;;;;;5049232;28;20017;-73
2023/01/21 02:00:39;;;;;;;53.13;27.55;;;2.00;98.80;;;;;;5037089;28;20041;-73
2023/01/21 02:05:51;;;;;;;42.63;22.13;;;2.00;98.50;;;;;;5039686;28;20068;-73
2023/01/21 02:08:18;;;;;;;52.05;26.77;;;2.00;98.60;;;;;;5047470;28;20021;-74
2023/01/21 02:10:44;;;;;;;51.47;28.15;;;1.90;98.20;;;;;;5035956;28;20655;-74
2023/01/21 02:13:10;;;;;;;38.03;20.05;;;1.90;98.30;;;;;;5037351;28;20029;-74
2023/01/21 02:15:48;;;;;;;52.15;28.38;;;1.90;98.10;;;;;;5032441;28;20033;-74
2023/01/21 02:18:31;;;;;;;60.72;28.92;;;1.80;97.80;;;;;;5049845;28;20064;-74
2023/01/21 02:20:57;;;;;;;43.70;22.45;;;1.80;97.40;;;;;;5045195;28;20359;-73
2023/01/21 02:23:41;;;;;;;45.42;23.17;;;1.80;98.80;;;;;;5043732;28;20531;-73
2023/01/21 02:26:49;;;;;;;32.45;15.80;;;1.70;98.40;;;;;;5028277;28;20033;-73
2023/01/21 02:29:32;;;;;;;48.00;24.73;;;1.80;98.80;;;;;;5062134;28;20493;-74
2023/01/21 02:32:33;;;;;;;50.20;24.58;;;1.70;98.90;;;;;;5023617;28;20029;-73
2023/01/21 02:35:16;;;;;;;47.05;24.10;;;1.70;99.40;;;;;;5026828;28;20385;-73
2023/01/21 02:37:51;;;;;;;54.83;27.15;;;1.70;99.20;;;;;;5037368;28;20040;-73
2023/01/21 02:40:26;;;;;;;53.45;26.75;;;1.70;98.80;;;;;;5033100;28;20029;-74
2023/01/21 02:43:05;;;;;;;48.47;26.35;;;1.60;98.70;;;;;;5037037;28;20028;-73
2023/01/21 02:45:48;;;;;;;45.67;22.40;;;1.60;98.80;;;;;;5030465;28;20479;-75
2023/01/21 02:48:27;;;;;;;26.42;12.18;;;1.60;99.60;;;;;;5050166;28;20016;-73
2023/01/21 02:50:53;;;;;;;63.58;32.33;;;1.60;99.90;;;;;;5034992;28;20017;-74
2023/01/21 02:53:25;;;;;;;53.28;25.50;;;1.70;99.90;;;;;;5035763;28;20025;-74
2023/01/21 02:55:51;;;;;;;48.28;22.27;;;1.70;99.90;;;;;;5050200;28;20033;-74
2023/01/21 02:58:21;;;;;;;43.67;19.65;;;1.70;99.90;;;;;;5032709;28;20453;-74
2023/01/21 03:01:04;;;;;;;62.20;30.88;;;1.80;99.90;;;;;;5051166;28;20041;-74
2023/01/21 03:03:51;;;;;;;54.28;25.25;;;1.80;99.90;;;;;;5033588;28;20017;-73
2023/01/21 03:06:36;;;;;;;49.92;23.23;;;1.80;99.80;;;;;;5056768;28;20479;-75
2023/01/21 03:09:24;;;;;;;53.95;24.83;;;1.70;99.50;;;;;;5033142;28;20402;-74
2023/01/21 03:12:08;;;;;;;57.78;28.52;;;1.70;99.20;;;;;;5014422;28;20116;-74
2023/01/21 03:17:52;;;;;;;54.35;26.50;;;1.70;98.40;;;;;;5062402;28;20040;-74
2023/01/21 03:20:26;;;;;;;57.15;25.52;;;1.70;98.90;;;;;;5032673;28;20079;-74
2023/01/21 03:22:58;;;;;;;41.55;19.52;;;1.70;98.80;;;;;;5060720;28;20484;-75
2023/01/21 03:25:30;;;;;;;44.03;21.23;;;1.70;99.00;;;;;;5054431;28;20032;-74
2023/01/21 03:27:58;;;;;;;54.92;26.50;;;1.70;98.90;;;;;;5042975;28;20036;-74
2023/01/21 03:30:27;;;;;;;57.78;29.08;;;1.70;98.70;;;;;;5053570;28;20087;-74
2023/01/21 03:32:56;;;;;;;46.85;24.23;;;1.70;98.20;;;;;;5056456;28;20032;-74
2023/01/21 03:35:26;;;;;;;42.65;20.55;;;1.70;98.10;;;;;;5047882;28;20017;-74
2023/01/21 03:38:21;;;;;;;52.88;27.52;;;1.70;98.40;;;;;;5052290;28;20082;-75
2023/01/21 03:40:57;;;;;;;48.53;23.15;;;1.70;98.00;;;;;;5047824;28;20123;-75
2023/01/21 03:43:24;;;;;;;34.47;18.67;;;1.70;97.80;;;;;;5047072;28;20030;-74
2023/01/21 03:46:03;;;;;;;40.80;18.83;;;1.70;97.90;;;;;;5035079;28;20035;-75
2023/01/21 03:48:44;;;;;;;48.40;22.53;;;1.70;97.90;;;;;;5044542;28;20491;-74
2023/01/21 03:51:17;;;;;;;45.50;23.90;;;1.70;97.90;;;;;;5060028;28;20263;-73
2023/01/21 03:53:44;;;;;;;52.70;27.42;;;1.70;97.70;;;;;;5059602;28;20033;-74
2023/01/21 03:56:10;;;;;;;53.05;24.90;;;1.70;97.70;;;;;;5052153;28;20104;-74
2023/01/21 03:58:35;;;;;;;55.90;25.00;;;1.70;97.80;;;;;;5028402;28;20108;-74
2023/01/21 04:01:01;;;;;;;60.13;29.48;;;1.80;98.00;;;;;;5039704;28;20454;-74
2023/01/21 04:03:27;;;;;;;46.30;22.50;;;1.80;98.00;;;;;;5040246;28;20021;-73
2023/01/21 04:05:52;;;;;;;41.72;21.48;;;1.80;97.70;;;;;;5035792;28;20022;-75
2023/01/21 04:08:18;;;;;;;55.22;27.80;;;1.80;97.70;;;;;;5042309;28;20048;-74
2023/01/21 04:10:44;;;;;;;39.95;20.98;;;1.80;97.60;;;;;;5052400;28;20029;-74
2023/01/21 04:13:10;;;;;;;55.13;27.42;;;1.80;97.60;;;;;;5036309;28;20112;-73
2023/01/21 04:15:37;;;;;;;55.72;27.95;;;1.80;97.30;;;;;;5033787;28;20027;-74
2023/01/21 04:18:03;;;;;;;34.60;14.82;;;1.80;98.00;;;;;;5052484;28;20090;-73
2023/01/21 04:20:28;;;;;;;29.35;15.13;;;1.80;98.00;;;;;;5030877;28;20033;-74
2023/01/21 04:22:54;;;;;;;55.53;26.23;;;1.80;98.20;;;;;;5039253;28;20084;-74
2023/01/21 04:25:21;;;;;;;45.80;23.58;;;1.80;98.30;;;;;;5037715;28;20644;-73
2023/01/21 04:27:46;;;;;;;62.38;31.67;;;1.80;98.00;;;;;;5058880;28;20035;-74
2023/01/21 04:30:12;;;;;;;56.13;25.25;;;1.70;97.50;;;;;;5062507;28;20041;-74
2023/01/21 04:32:38;;;;;;;55.17;28.10;;;1.70;97.30;;;;;;5058485;28;20073;-73
2023/01/21 04:35:05;;;;;;;62.00;28.70;;;1.70;97.50;;;;;;5041669;28;20112;-73
2023/01/21 04:37:31;;;;;;;58.33;28.98;;;1.70;97.10;;;;;;5052534;28;20031;-73
2023/01/21 04:39:57;;;;;;;53.72;25.58;;;1.70;96.90;;;;;;5038379;28;20079;-73
2023/01/21 04:42:24;;;;;;;59.60;29.48;;;1.60;96.70;;;;;;5044141;28;20036;-74
2023/01/21 04:44:50;;;;;;;62.05;28.65;;;1.60;96.60;;;;;;5054533;28;20037;-74
2023/01/21 04:47:16;;;;;;;56.80;28.80;;;1.60;96.60;;;;;;5048695;28;20494;-73
2023/01/21 04:49:41;;;;;;;59.80;29.55;;;1.60;96.40;;;;;;5041517;28;20036;-74
2023/01/21 04:52:08;;;;;;;57.15;29.00;;;1.60;96.30;;;;;;5036705;28;20082;-73
2023/01/21 04:54:33;;;;;;;57.92;27.02;;;1.60;96.20;;;;;;5050703;28;20025;-73
2023/01/21 04:56:59;;;;;;;42.50;19.15;;;1.60;96.20;;;;;;5032297;28;20032;-73
2023/01/21 04:59:24;;;;;;;51.20;23.60;;;1.60;96.70;;;;;;5048627;28;20572;-73
2023/01/21 05:01:50;;;;;;;60.30;30.13;;;1.60;97.00;;;;;;5042045;28;20523;-73
2023/01/21 05:04:16;;;;;;;55.53;27.52;;;1.60;97.10;;;;;;5060476;28;20017;-73
2023/01/21 05:06:41;;;;;;;58.67;26.63;;;1.50;96.90;;;;;;5056624;28;20033;-74
2023/01/21 05:09:07;;;;;;;48.70;22.27;;;1.50;96.80;;;;;;5028337;28;20079;-73
2023/01/21 05:11:32;;;;;;;66.90;31.75;;;1.50;97.20;;;;;;5036923;28;20480;-73
2023/01/21 05:13:59;;;;;;;66.72;31.98;;;1.50;97.40;;;;;;5041365;28;20472;-73
2023/01/21 05:16:25;;;;;;;75.00;35.53;;;1.40;97.10;;;;;;5034163;28;20033;-73
2023/01/21 05:18:50;;;;;;;65.70;30.08;;;1.40;97.20;;;;;;5024605;28;20124;-74
2023/01/21 05:21:16;;;;;;;75.50;33.05;;;1.40;97.60;;;;;;5049024;28;20040;-73
2023/01/21 05:23:42;;;;;;;55.72;26.45;;;1.40;97.50;;;;;;5046065;28;20147;-73
2023/01/21 05:26:08;;;;;;;37.13;18.33;;;1.40;97.70;;;;;;5028357;28;20037;-73
2023/01/21 05:28:34;;;;;;;47.58;23.48;;;1.40;98.40;;;;;;5049345;28;20021;-73
2023/01/21 05:31:01;;;;;;;71.05;33.03;;;1.40;98.30;;;;;;5046171;28;20139;-73
2023/01/21 05:33:31;;;;;;;62.63;28.20;;;1.50;98.20;;;;;;5037896;28;20032;-73
2023/01/21 05:35:57;;;;;;;69.57;28.73;;;1.40;98.10;;;;;;5044077;28;20048;-73
2023/01/21 05:38:23;;;;;;;76.10;35.90;;;1.40;98.10;;;;;;5018498;28;20028;-72
2023/01/21 05:40:48;;;;;;;77.90;36.30;;;1.40;98.00;;;;;;5022605;28;20067;-73
2023/01/21 05:43:14;;;;;;;76.85;34.30;;;1.40;97.70;;;;;;5028561;28;20025;-74
2023/01/21 05:45:40;;;;;;;62.15;27.65;;;1.40;97.70;;;;;;5051259;28;20052;-75
2023/01/21 05:48:07;;;;;;;64.32;27.75;;;1.40;97.80;;;;;;5047846;28;20713;-74
2023/01/21 05:50:33;;;;;;;76.28;35.08;;;1.40;97.90;;;;;;5037267;28;20029;-75
2023/01/21 05:52:58;;;;;;;41.20;19.88;;;1.50;98.50;;;;;;5032215;28;20087;-73
2023/01/21 05:55:24;;;;;;;61.13;27.17;;;1.50;99.00;;;;;;5035267;28;20026;-73
2023/01/21 05:57:50;;;;;;;53.70;22.45;;;1.40;98.90;;;;;;5027991;28;20822;-73
2023/01/21 06:00:16;;;;;;;79.50;36.80;;;1.40;98.80;;;;;;5056049;28;20029;-74
2023/01/21 06:02:41;;;;;;;91.28;37.33;;;1.40;98.60;;;;;;5051816;28;20031;-73
2023/01/21 06:05:07;;;;;;;73.32;32.35;;;1.50;98.40;;;;;;5037017;28;20037;-74
2023/01/21 06:07:33;;;;;;;87.78;39.20;;;1.50;98.20;;;;;;5056031;28;20077;-74
2023/01/21 06:09:58;;;;;;;83.88;36.38;;;1.50;98.30;;;;;;5048983;28;20044;-73
2023/01/21 06:12:24;;;;;;;82.45;35.45;;;1.60;98.10;;;;;;5058321;28;20047;-74
2023/01/21 06:14:49;;;;;;;81.28;35.17;;;1.60;97.90;;;;;;5040896;28;20073;-74
2023/01/21 06:17:15;;;;;;;84.88;40.25;;;1.60;97.70;;;;;;5050848;28;20025;-73
2023/01/21 06:19:41;;;;;;;75.90;34.00;;;1.70;97.70;;;;;;5029971;28;20022;-73
2023/01/21 06:22:08;;;;;;;58.63;26.42;;;1.70;97.70;;;;;;5053100;28;20078;-73
2023/01/21 06:24:34;;;;;;;87.50;37.47;;;1.70;97.80;;;;;;5034246;28;20107;-73
2023/01/21 06:27:00;;;;;;;90.40;38.85;;;1.70;98.20;;;;;;5048156;28;20461;-74
2023/01/21 06:29:25;;;;;;;85.13;38.30;;;1.70;98.30;;;;;;5032472;28;20065;-73
2023/01/21 06:31:51;;;;;;;71.80;31.65;;;1.70;97.90;;;;;;5041679;28;20118;-73
2023/01/21 06:34:16;;;;;;;78.70;34.30;;;1.70;97.90;;;;;;5031628;28;20052;-74
2023/01/21 06:36:42;;;;;;;93.35;40.70;;;1.70;98.00;;;;;;5044999;28;20078;-73
2023/01/21 06:39:11;;;;;;;90.97;38.42;;;1.70;97.80;;;;;;5055638;28;20032;-74
2023/01/21 06:41:36;;;;;;;78.50;31.35;;;1.70;97.50;;;;;;5047696;28;20040;-74
2023/01/21 06:44:03;;;;;;;90.10;39.30;;;1.70;97.40;;;;;;5028223;28;20361;-74
2023/01/21 06:46:29;;;;;;;86.60;35.25;;;1.80;97.50;;;;;;5046080;28;20028;-74
2023/01/21 06:48:55;;;;;;;97.03;39.95;;;1.80;97.30;;;;;;5050915;28;20711;-73
2023/01/21 06:51:20;;;;;;;96.13;41.80;;;1.80;97.10;;;;;;5048619;28;20024;-74
2023/01/21 06:53:46;;;;;;;84.47;33.30;;;1.80;97.00;;;;;;5025600;28;20029;-73
2023/01/21 06:56:12;;;;;;;57.22;22.77;;;1.80;97.10;;;;;;5053196;28;20637;-74
2023/01/21 06:58:37;;;;;;;91.60;37.60;;;1.80;97.60;;;;;;5054507;28;20497;-73
2023/01/21 07:01:03;;;;;;;96.45;39.78;;;1.90;97.40;;;;;;5039810;28;20454;-73
2023/01/21 07:03:29;;;;;;;98.15;39.70;;;1.90;97.60;;;;;;5051451;28;20061;-72
2023/01/21 07:05:54;;;;;;;80.55;33.10;;;1.90;97.40;;;;;;5049391;28;20029;-73
2023/01/21 07:08:21;;;;;;;77.05;30.92;;;2.00;98.20;;;;;;5043907;28;20053;-73
2023/01/21 07:10:46;;;;;;;102.57;40.97;;;2.00;98.10;;;;;;5046093;28;20526;-72
2023/01/21 07:13:12;;;;;;;61.45;25.27;;;2.00;97.60;;;;;;5049306;28;20056;-73
2023/01/21 07:15:38;;;;;;;65.53;26.65;;;2.00;97.80;;;;;;5013899;28;20060;-73
2023/01/21 07:18:03;;;;;;;95.70;39.33;;;1.90;97.90;;;;;;5052670;28;20029;-73
2023/01/21 07:20:29;;;;;;;93.20;38.28;;;1.90;97.80;;;;;;5057164;28;20033;-73
2023/01/21 07:22:55;;;;;;;87.68;38.35;;;2.00;97.50;;;;;;5026226;28;20104;-73
2023/01/21 07:25:20;;;;;;;66.10;26.08;;;2.00;97.30;;;;;;5049637;28;20507;-73
2023/01/21 07:27:46;;;;;;;80.50;31.20;;;2.00;98.00;;;;;;5042254;28;20064;-72
2023/01/21 07:30:17;;;;;;;66.50;26.08;;;2.00;98.50;;;;;;5053232;28;20500;-73
2023/01/21 07:32:44;;;;;;;87.85;35.15;;;2.00;98.50;;;;;;5044121;28;20037;-73
2023/01/21 07:35:09;;;;;;;92.70;38.78;;;1.90;98.40;;;;;;5041969;28;20086;-73
2023/01/21 07:37:35;;;;;;;88.10;36.20;;;1.90;98.10;;;;;;5023008;28;20479;-73
2023/01/21 07:40:01;;;;;;;85.30;33.72;;;1.90;98.00;;;;;;5029125;28;20021;-73
2023/01/21 07:42:26;;;;;;;94.65;36.40;;;1.90;97.70;;;;;;5040152;28;20113;-73
2023/01/21 07:44:52;;;;;;;99.00;42.05;;;2.00;97.70;;;;;;5042297;28;20051;-72
2023/01/21 07:47:17;;;;;;;98.03;38.60;;;2.10;97.60;;;;;;5017872;28;20036;-73
2023/01/21 07:49:43;;;;;;;92.90;38.00;;;2.10;97.30;;;;;;5048234;28;20044;-72
2023/01/21 07:52:09;;;;;;;72.15;28.10;;;2.10;97.10;;;;;;5041393;28;20021;-73
2023/01/21 07:54:34;;;;;;;79.50;32.70;;;2.20;97.30;;;;;;5045293;28;20035;-74
2023/01/21 07:57:01;;;;;;;67.50;31.65;;;2.20;97.70;;;;;;5038065;28;20072;-72
2023/01/21 07:59:26;;;;;;;75.78;32.47;;;2.20;98.00;;;;;;5045088;28;20033;-73
2023/01/21 08:01:52;;;;;;;78.55;33.35;;;2.20;98.30;;;;;;5047534;28;20029;-73
2023/01/21 08:04:18;;;;;;;89.20;41.25;;;2.20;98.80;;;;;;5049361;28;20048;-72
2023/01/21 08:06:44;;;;;;;89.90;41.33;;;2.20;98.40;;;;;;5046175;28;20029;-72
2023/01/21 08:09:09;;;;;;;93.18;41.22;;;2.30;97.80;;;;;;5042144;28;20040;-73
2023/01/21 08:11:35;;;;;;;70.75;31.33;;;2.30;97.30;;;;;;5046281;28;20025;-72
2023/01/21 08:14:01;;;;;;;75.93;35.15;;;2.40;97.10;;;;;;5040652;28;20029;-73
2023/01/21 08:16:26;;;;;;;61.45;26.88;;;2.50;97.20;;;;;;5039159;28;20034;-74
2023/01/21 08:18:53;;;;;;;74.22;34.70;;;2.50;97.40;;;;;;5027080;28;20036;-74
2023/01/21 08:21:19;;;;;;;85.03;39.72;;;2.50;97.30;;;;;;5040824;28;20051;-73
2023/01/21 08:23:45;;;;;;;76.25;34.45;;;2.50;97.40;;;;;;5039424;28;20029;-73
2023/01/21 08:26:11;;;;;;;81.60;37.03;;;2.50;97.10;;;;;;5050091;28;20052;-74
2023/01/21 08:28:37;;;;;;;87.78;40.17;;;2.60;96.90;;;;;;5035720;28;20083;-73
2023/01/21 08:31:08;;;;;;;88.38;37.80;;;2.60;96.60;;;;;;5027633;28;20127;-73
2023/01/21 08:33:34;;;;;;;72.13;33.17;;;2.60;96.50;;;;;;5040525;28;20029;-74
2023/01/21 08:36:01;;;;;;;84.90;38.20;;;2.70;96.50;;;;;;5050225;28;20033;-73
2023/01/21 08:38:27;;;;;;;78.72;33.67;;;2.70;96.30;;;;;;5041794;28;20030;-73
2023/01/21 08:40:52;;;;;;;72.28;32.78;;;2.80;96.50;;;;;;5027971;28;20056;-74
2023/01/21 08:43:18;;;;;;;80.15;36.55;;;2.80;96.30;;;;;;5046828;28;20392;-73
2023/01/21 08:45:44;;;;;;;78.90;36.80;;;2.80;96.40;;;;;;5026958;28;20028;-73
2023/01/21 08:48:09;;;;;;;82.25;38.17;;;2.90;96.10;;;;;;5060570;28;20402;-72
2023/01/21 08:50:35;;;;;;;81.28;35.15;;;2.90;95.90;;;;;;5042684;28;20057;-72
2023/01/21 08:53:00;;;;;;;79.85;36.55;;;2.90;95.70;;;;;;5054092;28;20024;-74
2023/01/21 08:55:26;;;;;;;79.65;38.75;;;2.90;95.60;;;;;;5036285;28;20101;-74
2023/01/21 08:57:54;;;;;;;80.55;37.95;;;3.00;95.90;;;;;;5051800;28;20036;-72
2023/01/21 09:00:21;;;;;;;74.63;36.35;;;3.10;95.50;;;;;;5052983;28;20479;-73
2023/01/21 09:02:47;;;;;;;81.63;36.80;;;3.10;95.30;;;;;;5023157;28;20055;-73
2023/01/21 09:05:12;;;;;;;73.35;34.70;;;3.20;95.30;;;;;;5031641;28;20032;-73
2023/01/21 09:07:38;;;;;;;77.68;36.15;;;3.20;95.20;;;;;;5041049;28;20028;-73
2023/01/21 09:10:05;;;;;;;76.70;36.42;;;3.10;95.10;;;;;;5052023;28;20414;-73
2023/01/21 09:12:32;;;;;;;72.90;34.65;;;3.20;95.20;;;;;;5044575;28;20040;-72
2023/01/21 09:14:57;;;;;;;82.65;35.97;;;3.20;95.10;;;;;;5014028;28;20518;-73
2023/01/21 09:17:30;;;;;;;76.15;36.88;;;3.30;95.00;;;;;;5056757;28;20020;-73
2023/01/21 09:19:55;;;;;;;68.47;33.00;;;3.30;94.80;;;;;;5048932;28;20665;-73
2023/01/21 09:22:22;;;;;;;74.78;34.60;;;3.40;94.90;;;;;;5047360;28;20037;-75
2023/01/21 09:24:48;;;;;;;63.80;32.35;;;3.50;94.90;;;;;;5043650;28;20152;-73
2023/01/21 09:27:13;;;;;;;65.47;30.73;;;3.60;94.80;;;;;;5049632;28;20485;-73
2023/01/21 09:29:40;;;;;;;50.33;24.77;;;3.60;94.70;;;;;;5049479;28;20049;-73
2023/01/21 09:32:06;;;;;;;61.22;29.20;;;3.70;94.80;;;;;;5044509;28;20103;-74
2023/01/21 09:34:31;;;;;;;67.88;36.20;;;3.80;94.80;;;;;;5047158;28;20116;-73
2023/01/21 09:36:57;;;;;;;61.15;30.30;;;3.80;94.80;;;;;;5045665;28;20017;-73
2023/01/21 09:39:23;;;;;;;69.47;34.22;;;3.80;94.60;;;;;;5039437;28;20032;-73
2023/01/21 09:41:51;;;;;;;65.00;32.78;;;3.90;94.80;;;;;;5034602;28;20037;-74
2023/01/21 09:44:23;;;;;;;53.65;27.20;;;4.00;94.60;;;;;;5041041;28;20117;-73
2023/01/21 09:47:17;;;;;;;60.03;29.90;;;4.00;94.60;;;;;;5047209;28;20078;-73
2023/01/21 09:49:51;;;;;;;55.50;26.73;;;4.10;94.60;;;;;;5049522;28;20020;-74
2023/01/21 09:52:34;;;;;;;56.47;27.55;;;4.20;94.60;;;;;;5049924;28;20410;-74
2023/01/21 09:55:01;;;;;;;50.63;25.25;;;4.30;94.70;;;;;;5029205;28;20025;-72
2023/01/21 09:57:32;;;;;;;42.58;20.20;;;4.30;94.70;;;;;;5035669;28;20021;-73
2023/01/21 10:00:24;;;;;;;59.50;27.15;;;4.30;94.90;;;;;;5046551;28;20423;-72
2023/01/21 10:03:25;;;;;;;53.05;25.40;;;4.40;95.40;;;;;;5014228;28;20037;-73
2023/01/21 10:06:12;;;;;;;62.92;30.65;;;4.40;94.80;;;;;;5023582;28;20044;-73
2023/01/21 10:08:53;;;;;;;56.05;27.20;;;4.40;94.60;;;;;;5049124;28;20020;-73
2023/01/21 10:12:00;;;;;;;46.30;23.40;;;4.40;94.00;;;;;;5046717;28;20439;-72
2023/01/21 10:14:34;;;;;;;59.03;27.98;;;4.40;94.80;;;;;;5050738;28;20432;-74
2023/01/21 10:17:17;;;;;;;58.95;31.73;;;4.40;94.60;;;;;;5042251;28;20036;-73
2023/01/21 10:19:50;;;;;;;63.72;32.38;;;4.40;94.00;;;;;;5054105;28;20037;-72
2023/01/21 10:22:20;;;;;;;65.22;33.83;;;4.40;93.60;;;;;;5038597;28;20119;-73
2023/01/21 10:25:00;;;;;;;63.45;32.50;;;4.50;93.30;;;;;;5043332;28;20439;-72
2023/01/21 10:27:29;;;;;;;63.67;32.05;;;4.60;93.10;;;;;;5047277;28;20018;-74
2023/01/21 10:30:08;;;;;;;59.25;31.27;;;4.60;93.00;;;;;;5061167;28;20037;-72
2023/01/21 10:32:40;;;;;;;60.17;32.20;;;4.60;92.90;;;;;;5033372;28;20064;-72
2023/01/21 10:35:17;;;;;;;65.65;31.65;;;4.60;92.90;;;;;;5059376;28;20033;-73
2023/01/21 10:37:53;;;;;;;58.83;29.50;;;4.50;92.80;;;;;;5052597;28;20029;-73
2023/01/21 10:40:44;;;;;;;64.65;32.05;;;4.50;92.80;;;;;;5056283;28;20024;-73
2023/01/21 10:43:34;;;;;;;51.88;26.60;;;4.60;92.80;;;;;;5044270;28;20037;-74
2023/01/21 10:46:28;;;;;;;56.80;29.52;;;4.60;93.50;;;;;;5053010;28;20020;-73
2023/01/21 10:49:00;;;;;;;45.05;23.10;;;4.70;93.70;;;;;;5033767;28;20036;-73
2023/01/21 10:51:38;;;;;;;49.78;25.33;;;4.70;93.90;;;;;;5041675;28;20109;-73
2023/01/21 10:54:15;;;;;;;47.88;24.77;;;4.70;93.50;;;;;;5037279;28;20025;-74
2023/01/21 10:56:54;;;;;;;44.28;23.00;;;4.80;93.50;;;;;;5039247;28;20018;-74
2023/01/21 10:59:22;;;;;;;52.30;25.70;;;4.90;93.90;;;;;;5042032;28;20029;-74
2023/01/21 11:01:53;;;;;;;57.42;27.85;;;4.90;94.00;;;;;;5045342;28;20025;-72
2023/01/21 11:04:23;;;;;;;43.85;25.52;;;5.00;94.50;;;;;;5036686;28;20026;-73
2023/01/21 11:07:01;;;;;;;45.90;24.30;;;5.20;94.10;;;;;;5031679;28;20167;-73
2023/01/21 11:09:31;;;;;;;43.40;24.52;;;5.40;93.70;;;;;;5039886;28;20043;-73
2023/01/21 11:11:56;;;;;;;49.83;28.10;;;5.40;92.80;;;;;;5042131;28;20259;-73
2023/01/21 11:14:25;;;;;;;55.45;29.00;;;5.50;92.20;;;;;;5034747;28;20032;-74
2023/01/21 11:16:52;;;;;;;53.67;27.63;;;5.50;91.80;;;;;;5047683;28;20034;-74
2023/01/21 11:19:22;;;;;;;53.47;27.95;;;5.50;91.80;;;;;;5039271;28;20075;-73
2023/01/21 11:22:16;;;;;;;47.30;26.13;;;5.50;91.70;;;;;;5046239;28;20069;-74
2023/01/21 11:24:47;;;;;;;38.85;22.27;;;5.60;91.40;;;;;;5030316;28;20073;-74
2023/01/21 11:27:33;;;;;;;37.55;19.35;;;6.10;92.40;;;;;;5058541;28;20017;-74
2023/01/21 11:29:59;;;;;;;44.17;24.35;;;6.90;92.60;;;;;;5039716;28;20072;-76
2023/01/21 11:32:27;;;;;;;28.58;16.13;;;7.30;91.80;;;;;;5054830;28;20396;-75
2023/01/21 11:35:07;;;;;;;28.08;15.93;;;7.80;92.10;;;;;;5039007;28;20107;-74
2023/01/21 11:37:36;;;;;;;34.58;21.35;;;8.40;91.50;;;;;;5055249;28;20132;-73
2023/01/21 11:40:20;;;;;;;25.42;15.07;;;8.60;84.80;;;;;;5046890;28;20033;-75
2023/01/21 11:42:52;;;;;;;41.88;23.77;;;9.10;90.40;;;;;;5049112;28;20087;-74
2023/01/21 11:45:30;;;;;;;39.20;22.52;;;9.10;82.80;;;;;;5035690;28;20021;-75
2023/01/21 11:47:56;;;;;;;33.92;21.85;;;9.20;81.20;;;;;;5051114;28;20027;-74
2023/01/21 11:50:27;;;;;;;36.30;22.33;;;9.50;82.80;;;;;;5036367;28;20100;-75
2023/01/21 11:53:05;;;;;;;29.48;17.25;;;9.60;75.30;;;;;;5044041;28;20036;-73
2023/01/21 11:55:33;;;;;;;34.55;20.95;;;9.70;77.10;;;;;;5030600;28;20036;-74
2023/01/21 11:57:58;;;;;;;34.65;21.35;;;9.90;73.30;;;;;;5046740;28;20017;-73
2023/01/21 12:00:26;;;;;;;31.08;20.05;;;9.90;82.40;;;;;;5055412;28;20561;-74
2023/01/21 12:02:59;;;;;;;30.80;18.02;;;9.50;74.80;;;;;;5044324;28;20055;-74
2023/01/21 12:05:35;;;;;;;33.70;20.88;;;9.20;77.90;;;;;;5034622;28;20357;-73
2023/01/21 12:08:06;;;;;;;22.30;13.85;;;8.80;87.10;;;;;;5039769;28;20102;-73
2023/01/21 12:10:37;;;;;;;;;;;8.50;87.00;;;;;;5030086;28;20021;-73
2023/01/21 12:13:36;;;;;;;33.78;20.75;;;8.20;80.80;;;;;;5044254;28;20038;-74
2023/01/21 12:16:31;;;;;;;36.93;22.50;;;7.80;79.10;;;;;;5036506;28;20044;-74
2023/01/21 12:19:03;;;;;;;36.35;20.73;;;7.60;79.60;;;;;;5042102;28;20029;-74
2023/01/21 12:21:57;;;;;;;33.53;19.48;;;7.40;80.10;;;;;;5038515;28;20499;-75
2023/01/21 12:24:33;;;;;;;39.67;22.27;;;7.20;81.20;;;;;;5018956;28;20087;-74
2023/01/21 12:27:04;;;;;;;33.60;19.38;;;7.00;82.00;;;;;;5035674;28;20021;-74
2023/01/21 12:29:48;;;;;;;35.58;20.65;;;7.00;87.00;;;;;;5040006;28;20041;-73
2023/01/21 12:32:21;;;;;;;25.38;14.10;;;6.90;84.00;;;;;;5039688;28;20021;-74
2023/01/21 12:35:01;;;;;;;27.45;15.48;;;6.70;89.50;;;;;;5038174;28;20109;-73
2023/01/21 12:37:53;;;;;;;34.40;21.27;;;6.60;87.80;;;;;;5039289;28;20071;-74
2023/01/21 12:40:28;;;;;;;30.35;16.95;;;6.40;85.60;;;;;;5034828;28;20123;-74
2023/01/21 12:43:01;;;;;;;36.10;20.95;;;6.40;85.40;;;;;;5037394;28;20120;-75
2023/01/21 12:45:38;;;;;;;39.83;23.23;;;6.30;85.10;;;;;;5040621;28;20027;-74
2023/01/21 12:48:22;;;;;;;27.23;14.63;;;6.30;85.50;;;;;;5023289;28;20051;-74
2023/01/21 12:50:55;;;;;;;30.38;18.08;;;6.40;90.60;;;;;;5049510;28;20029;-74
2023/01/21 12:53:49;;;;;;;27.95;16.13;;;6.40;88.50;;;;;;5057078;28;20025;-74
2023/01/21 12:56:33;;;;;;;28.42;14.45;;;6.40;87.00;;;;;;5048684;28;20022;-74
2023/01/21 12:59:04;;;;;;;27.35;15.13;;;6.40;92.80;;;;;;5042497;28;20028;-74